sensor_id;sensor_type;location;lat;lon;timestamp;P1;durP1;ratioP1;P2;durP2;ratioP2
12412;SDS011;13877;18.896;-99.222;2023-03-03T00:01:43;13.50;;;4.93;;
12412;SDS011;13877;18.896;-99.222;2023-03-03T00:04:10;17.35;;;4.35;;
12412;SDS011;13877;18.896;-99.222;2023-03-03T00:06:37;13.05;;;4.25;;
12412;SDS011;13877;18.896;-99.222;2023-03-03T00:09:04;8.80;;;4.45;;
12412;SDS011;13877;18.896;-99.222;2023-03-03T00:11:31;14.55;;;4.88;;
12412;SDS011;13877;18.896;-99.222;2023-03-03T00:14:00;7.05;;;4.22;;
12412;SDS011;13877;18.896;-99.222;2023-03-03T00:16:28;9.80;;;4.43;;
12412;SDS011;13877;18.896;-99.222;2023-03-03T00:19:25;7.75;;;4.00;;
12412;SDS011;13877;18.896;-99.222;2023-03-03T00:21:53;9.63;;;3.83;;
12412;SDS011;13877;18.896;-99.222;2023-03-03T00:24:36;10.90;;;4.13;;
12412;SDS011;13877;18.896;-99.222;2023-03-03T00:29:57;12.35;;;4.97;;
12412;SDS011;13877;18.896;-99.222;2023-03-03T00:32:30;21.70;;;4.55;;
12412;SDS011;13877;18.896;-99.222;2023-03-03T00:35:20;23.92;;;5.40;;
12412;SDS011;13877;18.896;-99.222;2023-03-03T00:38:01;14.95;;;3.88;;
12412;SDS011;13877;18.896;-99.222;2023-03-03T00:40:38;12.40;;;3.92;;
12412;SDS011;13877;18.896;-99.222;2023-03-03T00:43:22;12.13;;;4.20;;
12412;SDS011;13877;18.896;-99.222;2023-03-03T00:45:54;18.17;;;3.60;;
12412;SDS011;13877;18.896;-99.222;2023-03-03T00:50:51;18.23;;;3.67;;
12412;SDS011;13877;18.896;-99.222;2023-03-03T00:53:20;15.95;;;3.70;;
12412;SDS011;13877;18.896;-99.222;2023-03-03T00:55:50;9.98;;;3.20;;
12412;SDS011;13877;18.896;-99.222;2023-03-03T00:58:18;25.10;;;3.75;;
12412;SDS011;13877;18.896;-99.222;2023-03-03T01:00:48;15.73;;;3.67;;
12412;SDS011;13877;18.896;-99.222;2023-03-03T01:03:20;9.73;;;3.60;;
12412;SDS011;13877;18.896;-99.222;2023-03-03T01:05:51;14.07;;;3.13;;
12412;SDS011;13877;18.896;-99.222;2023-03-03T01:08:18;16.23;;;3.92;;
12412;SDS011;13877;18.896;-99.222;2023-03-03T01:10:47;9.88;;;3.90;;
12412;SDS011;13877;18.896;-99.222;2023-03-03T01:13:17;13.13;;;3.15;;
12412;SDS011;13877;18.896;-99.222;2023-03-03T01:15:46;10.35;;;3.30;;
12412;SDS011;13877;18.896;-99.222;2023-03-03T01:18:13;23.58;;;3.60;;
12412;SDS011;13877;18.896;-99.222;2023-03-03T01:20:41;11.45;;;3.03;;
12412;SDS011;13877;18.896;-99.222;2023-03-03T01:23:09;13.73;;;3.00;;
12412;SDS011;13877;18.896;-99.222;2023-03-03T01:25:36;16.33;;;3.38;;
12412;SDS011;13877;18.896;-99.222;2023-03-03T01:28:04;10.43;;;3.35;;
12412;SDS011;13877;18.896;-99.222;2023-03-03T01:30:31;15.02;;;4.00;;
12412;SDS011;13877;18.896;-99.222;2023-03-03T01:32:58;14.63;;;3.70;;
12412;SDS011;13877;18.896;-99.222;2023-03-03T01:35:26;12.60;;;4.03;;
12412;SDS011;13877;18.896;-99.222;2023-03-03T01:37:54;6.88;;;3.53;;
12412;SDS011;13877;18.896;-99.222;2023-03-03T01:40:23;12.95;;;3.15;;
12412;SDS011;13877;18.896;-99.222;2023-03-03T01:42:53;6.28;;;3.22;;
12412;SDS011;13877;18.896;-99.222;2023-03-03T01:45:27;10.02;;;3.75;;
12412;SDS011;13877;18.896;-99.222;2023-03-03T01:48:09;7.40;;;3.70;;
12412;SDS011;13877;18.896;-99.222;2023-03-03T01:53:24;9.57;;;3.38;;
12412;SDS011;13877;18.896;-99.222;2023-03-03T01:55:58;10.85;;;3.25;;
12412;SDS011;13877;18.896;-99.222;2023-03-03T01:58:29;7.53;;;3.42;;
12412;SDS011;13877;18.896;-99.222;2023-03-03T02:01:02;10.07;;;3.75;;
12412;SDS011;13877;18.896;-99.222;2023-03-03T02:03:32;10.80;;;3.28;;
12412;SDS011;13877;18.896;-99.222;2023-03-03T02:06:04;13.82;;;4.28;;
12412;SDS011;13877;18.896;-99.222;2023-03-03T02:09:21;11.30;;;4.25;;
12412;SDS011;13877;18.896;-99.222;2023-03-03T02:11:23;9.75;;;3.97;;
12412;SDS011;13877;18.896;-99.222;2023-03-03T02:13:51;20.55;;;3.75;;
12412;SDS011;13877;18.896;-99.222;2023-03-03T02:16:18;14.98;;;4.50;;
12412;SDS011;13877;18.896;-99.222;2023-03-03T02:18:45;7.72;;;4.18;;
12412;SDS011;13877;18.896;-99.222;2023-03-03T02:21:14;14.25;;;4.45;;
12412;SDS011;13877;18.896;-99.222;2023-03-03T02:26:33;10.75;;;4.30;;
12412;SDS011;13877;18.896;-99.222;2023-03-03T02:29:07;14.80;;;4.32;;
12412;SDS011;13877;18.896;-99.222;2023-03-03T02:31:37;20.88;;;4.22;;
12412;SDS011;13877;18.896;-99.222;2023-03-03T02:34:05;7.53;;;4.03;;
12412;SDS011;13877;18.896;-99.222;2023-03-03T02:36:34;12.75;;;4.97;;
12412;SDS011;13877;18.896;-99.222;2023-03-03T02:41:41;14.27;;;4.93;;
12412;SDS011;13877;18.896;-99.222;2023-03-03T02:44:17;14.40;;;4.57;;
12412;SDS011;13877;18.896;-99.222;2023-03-03T02:46:49;15.25;;;5.05;;
12412;SDS011;13877;18.896;-99.222;2023-03-03T02:49:21;15.70;;;3.92;;
12412;SDS011;13877;18.896;-99.222;2023-03-03T02:51:52;12.18;;;4.68;;
12412;SDS011;13877;18.896;-99.222;2023-03-03T02:54:21;19.17;;;4.75;;
12412;SDS011;13877;18.896;-99.222;2023-03-03T02:56:50;14.07;;;4.57;;
12412;SDS011;13877;18.896;-99.222;2023-03-03T02:59:19;19.85;;;4.65;;
12412;SDS011;13877;18.896;-99.222;2023-03-03T03:01:48;13.32;;;4.28;;
12412;SDS011;13877;18.896;-99.222;2023-03-03T03:04:18;11.70;;;4.55;;
12412;SDS011;13877;18.896;-99.222;2023-03-03T03:06:52;12.68;;;4.47;;
12412;SDS011;13877;18.896;-99.222;2023-03-03T03:09:22;22.10;;;4.65;;
12412;SDS011;13877;18.896;-99.222;2023-03-03T03:11:52;16.02;;;4.88;;
12412;SDS011;13877;18.896;-99.222;2023-03-03T03:14:22;10.32;;;4.22;;
12412;SDS011;13877;18.896;-99.222;2023-03-03T03:16:52;15.07;;;4.75;;
12412;SDS011;13877;18.896;-99.222;2023-03-03T03:19:20;18.85;;;4.88;;
12412;SDS011;13877;18.896;-99.222;2023-03-03T03:21:47;9.27;;;4.07;;
12412;SDS011;13877;18.896;-99.222;2023-03-03T03:24:15;13.82;;;4.78;;
12412;SDS011;13877;18.896;-99.222;2023-03-03T03:26:47;17.45;;;5.43;;
12412;SDS011;13877;18.896;-99.222;2023-03-03T03:29:15;13.38;;;5.63;;
12412;SDS011;13877;18.896;-99.222;2023-03-03T03:31:42;12.55;;;5.75;;
12412;SDS011;13877;18.896;-99.222;2023-03-03T03:34:10;23.83;;;7.35;;
12412;SDS011;13877;18.896;-99.222;2023-03-03T03:36:39;17.88;;;6.63;;
12412;SDS011;13877;18.896;-99.222;2023-03-03T03:39:07;14.32;;;6.43;;
12412;SDS011;13877;18.896;-99.222;2023-03-03T03:41:37;19.17;;;7.07;;
12412;SDS011;13877;18.896;-99.222;2023-03-03T03:44:07;18.52;;;6.93;;
12412;SDS011;13877;18.896;-99.222;2023-03-03T03:46:34;13.77;;;5.57;;
12412;SDS011;13877;18.896;-99.222;2023-03-03T03:49:02;18.85;;;7.35;;
12412;SDS011;13877;18.896;-99.222;2023-03-03T03:51:29;16.88;;;6.45;;
12412;SDS011;13877;18.896;-99.222;2023-03-03T03:53:58;17.30;;;6.57;;
12412;SDS011;13877;18.896;-99.222;2023-03-03T03:56:27;16.75;;;7.20;;
12412;SDS011;13877;18.896;-99.222;2023-03-03T03:58:56;17.70;;;6.95;;
12412;SDS011;13877;18.896;-99.222;2023-03-03T04:01:23;17.50;;;6.68;;
12412;SDS011;13877;18.896;-99.222;2023-03-03T04:03:53;24.33;;;7.90;;
12412;SDS011;13877;18.896;-99.222;2023-03-03T04:06:23;18.48;;;6.03;;
12412;SDS011;13877;18.896;-99.222;2023-03-03T04:08:51;21.75;;;7.15;;
12412;SDS011;13877;18.896;-99.222;2023-03-03T04:11:20;17.75;;;7.07;;
12412;SDS011;13877;18.896;-99.222;2023-03-03T04:13:48;18.50;;;6.90;;
12412;SDS011;13877;18.896;-99.222;2023-03-03T04:16:15;24.98;;;7.40;;
12412;SDS011;13877;18.896;-99.222;2023-03-03T04:18:44;33.15;;;8.27;;
12412;SDS011;13877;18.896;-99.222;2023-03-03T04:21:12;15.35;;;7.38;;
12412;SDS011;13877;18.896;-99.222;2023-03-03T04:23:41;16.85;;;7.82;;
12412;SDS011;13877;18.896;-99.222;2023-03-03T04:26:08;24.50;;;8.00;;
12412;SDS011;13877;18.896;-99.222;2023-03-03T04:28:36;27.02;;;8.13;;
12412;SDS011;13877;18.896;-99.222;2023-03-03T04:31:03;22.35;;;8.15;;
12412;SDS011;13877;18.896;-99.222;2023-03-03T04:33:31;34.15;;;9.65;;
12412;SDS011;13877;18.896;-99.222;2023-03-03T04:36:03;25.88;;;9.70;;
12412;SDS011;13877;18.896;-99.222;2023-03-03T04:38:31;29.02;;;10.15;;
12412;SDS011;13877;18.896;-99.222;2023-03-03T04:40:58;31.40;;;10.45;;
12412;SDS011;13877;18.896;-99.222;2023-03-03T04:43:28;35.83;;;10.55;;
12412;SDS011;13877;18.896;-99.222;2023-03-03T04:45:57;34.78;;;11.50;;
12412;SDS011;13877;18.896;-99.222;2023-03-03T04:48:24;36.88;;;10.27;;
12412;SDS011;13877;18.896;-99.222;2023-03-03T04:50:51;36.10;;;10.80;;
12412;SDS011;13877;18.896;-99.222;2023-03-03T04:53:19;28.60;;;10.55;;
12412;SDS011;13877;18.896;-99.222;2023-03-03T04:55:48;35.97;;;10.88;;
12412;SDS011;13877;18.896;-99.222;2023-03-03T04:58:17;34.72;;;10.52;;
12412;SDS011;13877;18.896;-99.222;2023-03-03T05:00:46;39.67;;;11.18;;
12412;SDS011;13877;18.896;-99.222;2023-03-03T05:03:18;33.15;;;10.70;;
12412;SDS011;13877;18.896;-99.222;2023-03-03T05:05:45;31.80;;;10.25;;
12412;SDS011;13877;18.896;-99.222;2023-03-03T05:08:13;40.63;;;9.77;;
12412;SDS011;13877;18.896;-99.222;2023-03-03T05:10:40;30.05;;;9.55;;
12412;SDS011;13877;18.896;-99.222;2023-03-03T05:13:07;37.60;;;10.38;;
12412;SDS011;13877;18.896;-99.222;2023-03-03T05:15:34;32.22;;;9.73;;
12412;SDS011;13877;18.896;-99.222;2023-03-03T05:18:01;27.75;;;9.95;;
12412;SDS011;13877;18.896;-99.222;2023-03-03T05:20:28;24.13;;;9.63;;
12412;SDS011;13877;18.896;-99.222;2023-03-03T05:22:55;27.33;;;9.80;;
12412;SDS011;13877;18.896;-99.222;2023-03-03T05:25:24;33.53;;;10.13;;
12412;SDS011;13877;18.896;-99.222;2023-03-03T05:27:51;25.50;;;9.65;;
12412;SDS011;13877;18.896;-99.222;2023-03-03T05:30:19;23.05;;;9.15;;
12412;SDS011;13877;18.896;-99.222;2023-03-03T05:32:50;19.08;;;8.43;;
12412;SDS011;13877;18.896;-99.222;2023-03-03T05:35:17;19.20;;;9.20;;
12412;SDS011;13877;18.896;-99.222;2023-03-03T05:37:45;22.58;;;7.63;;
12412;SDS011;13877;18.896;-99.222;2023-03-03T05:40:15;21.75;;;7.95;;
12412;SDS011;13877;18.896;-99.222;2023-03-03T05:42:42;28.95;;;8.05;;
12412;SDS011;13877;18.896;-99.222;2023-03-03T05:45:10;35.97;;;8.75;;
12412;SDS011;13877;18.896;-99.222;2023-03-03T05:47:37;22.55;;;8.55;;
12412;SDS011;13877;18.896;-99.222;2023-03-03T05:50:05;25.65;;;8.10;;
12412;SDS011;13877;18.896;-99.222;2023-03-03T05:52:32;23.40;;;8.02;;
12412;SDS011;13877;18.896;-99.222;2023-03-03T05:54:59;20.35;;;7.82;;
12412;SDS011;13877;18.896;-99.222;2023-03-03T05:57:26;38.95;;;7.47;;
12412;SDS011;13877;18.896;-99.222;2023-03-03T05:59:53;23.63;;;7.63;;
12412;SDS011;13877;18.896;-99.222;2023-03-03T06:02:20;34.90;;;7.60;;
12412;SDS011;13877;18.896;-99.222;2023-03-03T06:04:47;21.60;;;8.07;;
12412;SDS011;13877;18.896;-99.222;2023-03-03T06:07:14;14.73;;;6.22;;
12412;SDS011;13877;18.896;-99.222;2023-03-03T06:09:41;18.70;;;6.43;;
12412;SDS011;13877;18.896;-99.222;2023-03-03T06:12:08;25.02;;;6.40;;
12412;SDS011;13877;18.896;-99.222;2023-03-03T06:14:35;22.50;;;6.82;;
12412;SDS011;13877;18.896;-99.222;2023-03-03T06:17:02;22.48;;;7.00;;
12412;SDS011;13877;18.896;-99.222;2023-03-03T06:19:30;19.00;;;6.43;;
12412;SDS011;13877;18.896;-99.222;2023-03-03T06:21:58;18.55;;;5.90;;
12412;SDS011;13877;18.896;-99.222;2023-03-03T06:24:25;18.55;;;6.47;;
12412;SDS011;13877;18.896;-99.222;2023-03-03T06:26:55;23.55;;;5.68;;
12412;SDS011;13877;18.896;-99.222;2023-03-03T06:29:22;17.67;;;6.65;;
12412;SDS011;13877;18.896;-99.222;2023-03-03T06:31:49;21.70;;;7.53;;
12412;SDS011;13877;18.896;-99.222;2023-03-03T06:34:17;20.33;;;7.65;;
12412;SDS011;13877;18.896;-99.222;2023-03-03T06:36:44;31.70;;;8.35;;
12412;SDS011;13877;18.896;-99.222;2023-03-03T06:39:12;17.42;;;7.38;;
12412;SDS011;13877;18.896;-99.222;2023-03-03T06:41:39;16.45;;;7.45;;
12412;SDS011;13877;18.896;-99.222;2023-03-03T06:44:06;20.50;;;7.55;;
12412;SDS011;13877;18.896;-99.222;2023-03-03T06:46:33;18.02;;;8.13;;
12412;SDS011;13877;18.896;-99.222;2023-03-03T06:49:00;21.45;;;7.70;;
12412;SDS011;13877;18.896;-99.222;2023-03-03T06:51:34;17.58;;;7.15;;
12412;SDS011;13877;18.896;-99.222;2023-03-03T06:54:11;16.10;;;7.43;;
12412;SDS011;13877;18.896;-99.222;2023-03-03T06:56:40;25.27;;;7.13;;
12412;SDS011;13877;18.896;-99.222;2023-03-03T06:59:16;18.42;;;7.03;;
12412;SDS011;13877;18.896;-99.222;2023-03-03T07:01:45;20.42;;;7.95;;
12412;SDS011;13877;18.896;-99.222;2023-03-03T07:04:30;18.33;;;7.75;;
12412;SDS011;13877;18.896;-99.222;2023-03-03T07:07:07;19.70;;;7.03;;
12412;SDS011;13877;18.896;-99.222;2023-03-03T07:09:55;21.48;;;7.00;;
12412;SDS011;13877;18.896;-99.222;2023-03-03T07:12:25;19.63;;;7.53;;
12412;SDS011;13877;18.896;-99.222;2023-03-03T07:17:46;18.88;;;6.35;;
12412;SDS011;13877;18.896;-99.222;2023-03-03T07:20:19;24.17;;;7.10;;
12412;SDS011;13877;18.896;-99.222;2023-03-03T07:22:48;21.48;;;6.05;;
12412;SDS011;13877;18.896;-99.222;2023-03-03T07:25:30;22.23;;;6.82;;
12412;SDS011;13877;18.896;-99.222;2023-03-03T07:28:42;20.00;;;6.45;;
12412;SDS011;13877;18.896;-99.222;2023-03-03T07:30:53;14.90;;;6.72;;
12412;SDS011;13877;18.896;-99.222;2023-03-03T07:33:28;18.40;;;6.55;;
12412;SDS011;13877;18.896;-99.222;2023-03-03T07:36:02;22.90;;;6.50;;
12412;SDS011;13877;18.896;-99.222;2023-03-03T07:38:40;19.60;;;6.65;;
12412;SDS011;13877;18.896;-99.222;2023-03-03T07:41:16;19.92;;;7.05;;
12412;SDS011;13877;18.896;-99.222;2023-03-03T07:43:51;28.08;;;6.65;;
12412;SDS011;13877;18.896;-99.222;2023-03-03T07:52:00;21.30;;;7.03;;
12412;SDS011;13877;18.896;-99.222;2023-03-03T07:54:43;18.15;;;6.10;;
12412;SDS011;13877;18.896;-99.222;2023-03-03T07:59:48;26.27;;;6.85;;
12412;SDS011;13877;18.896;-99.222;2023-03-03T08:04:54;22.48;;;6.05;;
12412;SDS011;13877;18.896;-99.222;2023-03-03T08:07:21;19.85;;;6.20;;
12412;SDS011;13877;18.896;-99.222;2023-03-03T08:09:50;16.98;;;6.53;;
12412;SDS011;13877;18.896;-99.222;2023-03-03T08:12:28;14.35;;;6.25;;
12412;SDS011;13877;18.896;-99.222;2023-03-03T08:15:20;20.67;;;6.00;;
12412;SDS011;13877;18.896;-99.222;2023-03-03T08:17:51;22.17;;;6.20;;
12412;SDS011;13877;18.896;-99.222;2023-03-03T08:23:00;15.18;;;5.38;;
12412;SDS011;13877;18.896;-99.222;2023-03-03T08:25:27;29.23;;;5.88;;
12412;SDS011;13877;18.896;-99.222;2023-03-03T08:27:54;22.13;;;5.75;;
12412;SDS011;13877;18.896;-99.222;2023-03-03T08:30:21;27.50;;;6.13;;
12412;SDS011;13877;18.896;-99.222;2023-03-03T08:32:48;13.68;;;5.10;;
12412;SDS011;13877;18.896;-99.222;2023-03-03T08:35:15;21.08;;;5.57;;
12412;SDS011;13877;18.896;-99.222;2023-03-03T08:37:42;23.48;;;7.03;;
12412;SDS011;13877;18.896;-99.222;2023-03-03T08:40:09;30.55;;;5.70;;
12412;SDS011;13877;18.896;-99.222;2023-03-03T08:42:36;16.77;;;6.10;;
12412;SDS011;13877;18.896;-99.222;2023-03-03T08:45:03;17.02;;;5.35;;
12412;SDS011;13877;18.896;-99.222;2023-03-03T08:47:30;21.70;;;5.55;;
12412;SDS011;13877;18.896;-99.222;2023-03-03T08:49:58;16.30;;;5.53;;
12412;SDS011;13877;18.896;-99.222;2023-03-03T08:52:25;19.50;;;5.38;;
12412;SDS011;13877;18.896;-99.222;2023-03-03T08:54:51;16.90;;;5.90;;
12412;SDS011;13877;18.896;-99.222;2023-03-03T08:57:19;12.63;;;5.15;;
12412;SDS011;13877;18.896;-99.222;2023-03-03T08:59:46;15.25;;;5.40;;
12412;SDS011;13877;18.896;-99.222;2023-03-03T09:02:13;14.50;;;5.80;;
12412;SDS011;13877;18.896;-99.222;2023-03-03T09:04:40;13.52;;;5.00;;
12412;SDS011;13877;18.896;-99.222;2023-03-03T09:07:10;14.27;;;5.55;;
12412;SDS011;13877;18.896;-99.222;2023-03-03T09:09:36;16.30;;;5.90;;
12412;SDS011;13877;18.896;-99.222;2023-03-03T09:12:15;18.83;;;5.57;;
12412;SDS011;13877;18.896;-99.222;2023-03-03T09:14:53;18.65;;;5.32;;
12412;SDS011;13877;18.896;-99.222;2023-03-03T09:17:29;17.85;;;5.95;;
12412;SDS011;13877;18.896;-99.222;2023-03-03T09:20:01;22.25;;;5.65;;
12412;SDS011;13877;18.896;-99.222;2023-03-03T09:22:43;23.98;;;4.90;;
12412;SDS011;13877;18.896;-99.222;2023-03-03T09:25:53;12.05;;;4.93;;
12412;SDS011;13877;18.896;-99.222;2023-03-03T09:28:02;19.27;;;4.72;;
12412;SDS011;13877;18.896;-99.222;2023-03-03T09:30:38;14.45;;;4.32;;
12412;SDS011;13877;18.896;-99.222;2023-03-03T09:33:27;15.77;;;3.97;;
12412;SDS011;13877;18.896;-99.222;2023-03-03T09:39:12;15.13;;;4.72;;
12412;SDS011;13877;18.896;-99.222;2023-03-03T09:50:29;16.52;;;5.07;;
12412;SDS011;13877;18.896;-99.222;2023-03-03T10:13:12;22.00;;;5.35;;
12412;SDS011;13877;18.896;-99.222;2023-03-03T10:16:12;12.35;;;4.20;;
12412;SDS011;13877;18.896;-99.222;2023-03-03T10:19:10;8.63;;;3.72;;
12412;SDS011;13877;18.896;-99.222;2023-03-03T10:27:04;15.27;;;4.50;;
12412;SDS011;13877;18.896;-99.222;2023-03-03T10:32:22;12.65;;;4.22;;
12412;SDS011;13877;18.896;-99.222;2023-03-03T10:35:17;14.43;;;3.72;;
12412;SDS011;13877;18.896;-99.222;2023-03-03T10:38:13;10.10;;;3.45;;
12412;SDS011;13877;18.896;-99.222;2023-03-03T10:40:51;15.45;;;3.78;;
12412;SDS011;13877;18.896;-99.222;2023-03-03T10:57:31;15.48;;;4.18;;
12412;SDS011;13877;18.896;-99.222;2023-03-03T11:05:59;18.45;;;4.22;;
12412;SDS011;13877;18.896;-99.222;2023-03-03T11:31:35;11.00;;;4.68;;
12412;SDS011;13877;18.896;-99.222;2023-03-03T11:34:47;9.73;;;4.70;;
12412;SDS011;13877;18.896;-99.222;2023-03-03T11:40:39;19.38;;;4.40;;
12412;SDS011;13877;18.896;-99.222;2023-03-03T11:43:16;13.90;;;4.28;;
12412;SDS011;13877;18.896;-99.222;2023-03-03T11:45:54;13.25;;;4.80;;
12412;SDS011;13877;18.896;-99.222;2023-03-03T11:51:19;20.23;;;4.65;;
12412;SDS011;13877;18.896;-99.222;2023-03-03T11:54:23;14.93;;;4.93;;
12412;SDS011;13877;18.896;-99.222;2023-03-03T11:57:16;17.38;;;4.43;;
12412;SDS011;13877;18.896;-99.222;2023-03-03T12:02:28;29.75;;;4.80;;
12412;SDS011;13877;18.896;-99.222;2023-03-03T12:05:24;16.13;;;5.13;;
12412;SDS011;13877;18.896;-99.222;2023-03-03T12:08:03;13.77;;;4.25;;
12412;SDS011;13877;18.896;-99.222;2023-03-03T12:10:54;27.17;;;5.65;;
12412;SDS011;13877;18.896;-99.222;2023-03-03T12:13:26;13.27;;;4.85;;
12412;SDS011;13877;18.896;-99.222;2023-03-03T12:16:09;10.53;;;4.33;;
12412;SDS011;13877;18.896;-99.222;2023-03-03T12:21:24;11.98;;;4.80;;
12412;SDS011;13877;18.896;-99.222;2023-03-03T12:29:35;22.40;;;4.85;;
12412;SDS011;13877;18.896;-99.222;2023-03-03T12:32:17;20.85;;;5.07;;
12412;SDS011;13877;18.896;-99.222;2023-03-03T12:56:57;21.38;;;5.75;;
12412;SDS011;13877;18.896;-99.222;2023-03-03T13:06:03;29.17;;;6.63;;
12412;SDS011;13877;18.896;-99.222;2023-03-03T13:08:59;22.23;;;5.45;;
12412;SDS011;13877;18.896;-99.222;2023-03-03T13:17:04;20.25;;;5.80;;
12412;SDS011;13877;18.896;-99.222;2023-03-03T13:20:11;25.92;;;5.32;;
12412;SDS011;13877;18.896;-99.222;2023-03-03T13:22:41;19.08;;;6.28;;
12412;SDS011;13877;18.896;-99.222;2023-03-03T13:27:51;20.05;;;6.25;;
12412;SDS011;13877;18.896;-99.222;2023-03-03T13:30:25;22.83;;;6.15;;
12412;SDS011;13877;18.896;-99.222;2023-03-03T13:38:21;20.83;;;6.30;;
12412;SDS011;13877;18.896;-99.222;2023-03-03T13:43:30;21.63;;;5.30;;
12412;SDS011;13877;18.896;-99.222;2023-03-03T13:54:35;28.50;;;6.45;;
12412;SDS011;13877;18.896;-99.222;2023-03-03T14:00:11;29.13;;;6.75;;
12412;SDS011;13877;18.896;-99.222;2023-03-03T14:05:25;28.52;;;6.40;;
12412;SDS011;13877;18.896;-99.222;2023-03-03T14:10:46;20.92;;;6.05;;
12412;SDS011;13877;18.896;-99.222;2023-03-03T14:17:26;17.45;;;6.63;;
12412;SDS011;13877;18.896;-99.222;2023-03-03T14:22:56;22.05;;;6.28;;
12412;SDS011;13877;18.896;-99.222;2023-03-03T14:28:16;25.38;;;7.00;;
12412;SDS011;13877;18.896;-99.222;2023-03-03T14:30:46;23.08;;;6.28;;
12412;SDS011;13877;18.896;-99.222;2023-03-03T14:38:34;22.60;;;6.60;;
12412;SDS011;13877;18.896;-99.222;2023-03-03T14:43:35;23.52;;;6.95;;
12412;SDS011;13877;18.896;-99.222;2023-03-03T14:48:56;38.47;;;12.50;;
12412;SDS011;13877;18.896;-99.222;2023-03-03T14:51:25;23.75;;;8.32;;
12412;SDS011;13877;18.896;-99.222;2023-03-03T14:57:00;39.63;;;15.40;;
12412;SDS011;13877;18.896;-99.222;2023-03-03T14:59:44;15.10;;;7.05;;
12412;SDS011;13877;18.896;-99.222;2023-03-03T15:02:39;12.05;;;4.80;;
12412;SDS011;13877;18.896;-99.222;2023-03-03T15:10:32;19.48;;;6.13;;
12412;SDS011;13877;18.896;-99.222;2023-03-03T15:18:26;18.13;;;6.20;;
12412;SDS011;13877;18.896;-99.222;2023-03-03T15:24:07;20.38;;;6.18;;
12412;SDS011;13877;18.896;-99.222;2023-03-03T15:29:36;19.20;;;5.82;;
12412;SDS011;13877;18.896;-99.222;2023-03-03T15:32:17;15.57;;;6.47;;
12412;SDS011;13877;18.896;-99.222;2023-03-03T15:34:51;20.02;;;6.45;;
12412;SDS011;13877;18.896;-99.222;2023-03-03T15:37:33;23.13;;;6.13;;
12412;SDS011;13877;18.896;-99.222;2023-03-03T15:40:28;23.35;;;6.57;;
12412;SDS011;13877;18.896;-99.222;2023-03-03T15:43:20;19.13;;;6.43;;
12412;SDS011;13877;18.896;-99.222;2023-03-03T15:46:03;20.08;;;6.85;;
12412;SDS011;13877;18.896;-99.222;2023-03-03T15:56:56;17.08;;;6.47;;
12412;SDS011;13877;18.896;-99.222;2023-03-03T15:59:48;20.27;;;6.10;;
12412;SDS011;13877;18.896;-99.222;2023-03-03T16:02:39;23.23;;;6.78;;
12412;SDS011;13877;18.896;-99.222;2023-03-03T16:05:19;35.58;;;6.68;;
12412;SDS011;13877;18.896;-99.222;2023-03-03T16:30:19;21.98;;;6.50;;
12412;SDS011;13877;18.896;-99.222;2023-03-03T16:36:19;14.45;;;6.47;;
12412;SDS011;13877;18.896;-99.222;2023-03-03T16:41:50;26.33;;;6.88;;
12412;SDS011;13877;18.896;-99.222;2023-03-03T16:47:00;19.27;;;6.97;;
12412;SDS011;13877;18.896;-99.222;2023-03-03T16:49:43;29.27;;;6.15;;
12412;SDS011;13877;18.896;-99.222;2023-03-03T16:52:27;17.52;;;6.32;;
12412;SDS011;13877;18.896;-99.222;2023-03-03T16:57:44;23.77;;;6.43;;
12412;SDS011;13877;18.896;-99.222;2023-03-03T17:00:38;15.23;;;6.45;;
12412;SDS011;13877;18.896;-99.222;2023-03-03T17:20:22;15.93;;;6.90;;
12412;SDS011;13877;18.896;-99.222;2023-03-03T17:25:56;20.77;;;6.82;;
12412;SDS011;13877;18.896;-99.222;2023-03-03T17:35:01;26.38;;;6.38;;
12412;SDS011;13877;18.896;-99.222;2023-03-03T17:46:20;16.58;;;6.32;;
12412;SDS011;13877;18.896;-99.222;2023-03-03T17:51:57;10.57;;;5.20;;
12412;SDS011;13877;18.896;-99.222;2023-03-03T18:00:29;15.18;;;6.47;;
12412;SDS011;13877;18.896;-99.222;2023-03-03T18:06:12;23.35;;;5.90;;
12412;SDS011;13877;18.896;-99.222;2023-03-03T18:09:11;13.80;;;5.15;;
12412;SDS011;13877;18.896;-99.222;2023-03-03T18:20:55;15.82;;;5.35;;
12412;SDS011;13877;18.896;-99.222;2023-03-03T18:31:47;15.52;;;6.10;;
12412;SDS011;13877;18.896;-99.222;2023-03-03T18:36:54;14.20;;;4.97;;
12412;SDS011;13877;18.896;-99.222;2023-03-03T18:39:44;15.05;;;5.82;;
12412;SDS011;13877;18.896;-99.222;2023-03-03T18:44:41;14.93;;;5.82;;
12412;SDS011;13877;18.896;-99.222;2023-03-03T18:47:12;12.07;;;5.35;;
12412;SDS011;13877;18.896;-99.222;2023-03-03T18:52:28;21.33;;;6.13;;
12412;SDS011;13877;18.896;-99.222;2023-03-03T18:55:29;12.32;;;5.07;;
12412;SDS011;13877;18.896;-99.222;2023-03-03T19:00:56;12.25;;;5.53;;
12412;SDS011;13877;18.896;-99.222;2023-03-03T19:06:01;11.43;;;4.85;;
12412;SDS011;13877;18.896;-99.222;2023-03-03T19:14:11;15.65;;;5.35;;
12412;SDS011;13877;18.896;-99.222;2023-03-03T19:16:46;15.40;;;5.50;;
12412;SDS011;13877;18.896;-99.222;2023-03-03T19:19:27;18.52;;;5.90;;
12412;SDS011;13877;18.896;-99.222;2023-03-03T19:22:47;19.45;;;4.78;;
12412;SDS011;13877;18.896;-99.222;2023-03-03T19:25:34;10.43;;;4.80;;
12412;SDS011;13877;18.896;-99.222;2023-03-03T19:33:09;13.75;;;4.95;;
12412;SDS011;13877;18.896;-99.222;2023-03-03T19:38:37;20.65;;;5.18;;
12412;SDS011;13877;18.896;-99.222;2023-03-03T19:41:44;10.00;;;4.72;;
12412;SDS011;13877;18.896;-99.222;2023-03-03T19:47:32;12.30;;;4.00;;
12412;SDS011;13877;18.896;-99.222;2023-03-03T19:50:29;16.67;;;5.03;;
12412;SDS011;13877;18.896;-99.222;2023-03-03T19:53:03;12.73;;;4.88;;
12412;SDS011;13877;18.896;-99.222;2023-03-03T20:06:50;16.75;;;4.53;;
12412;SDS011;13877;18.896;-99.222;2023-03-03T20:09:32;16.25;;;5.10;;
12412;SDS011;13877;18.896;-99.222;2023-03-03T20:14:42;10.20;;;4.65;;
12412;SDS011;13877;18.896;-99.222;2023-03-03T20:39:35;12.18;;;4.32;;
12412;SDS011;13877;18.896;-99.222;2023-03-03T20:42:13;11.82;;;4.07;;
12412;SDS011;13877;18.896;-99.222;2023-03-03T20:51:04;11.65;;;4.15;;
12412;SDS011;13877;18.896;-99.222;2023-03-03T20:53:54;13.23;;;4.40;;
12412;SDS011;13877;18.896;-99.222;2023-03-03T20:59:48;12.20;;;5.18;;
12412;SDS011;13877;18.896;-99.222;2023-03-03T21:08:02;10.85;;;4.72;;
12412;SDS011;13877;18.896;-99.222;2023-03-03T21:10:33;12.50;;;5.22;;
12412;SDS011;13877;18.896;-99.222;2023-03-03T21:16:09;15.52;;;6.85;;
12412;SDS011;13877;18.896;-99.222;2023-03-03T21:18:41;14.77;;;6.78;;
12412;SDS011;13877;18.896;-99.222;2023-03-03T21:21:21;16.47;;;6.57;;
12412;SDS011;13877;18.896;-99.222;2023-03-03T21:23:48;14.60;;;7.03;;
12412;SDS011;13877;18.896;-99.222;2023-03-03T21:26:42;20.02;;;6.85;;
12412;SDS011;13877;18.896;-99.222;2023-03-03T21:31:51;25.58;;;10.70;;
12412;SDS011;13877;18.896;-99.222;2023-03-03T21:34:24;27.55;;;11.25;;
12412;SDS011;13877;18.896;-99.222;2023-03-03T21:37:04;20.55;;;10.90;;
12412;SDS011;13877;18.896;-99.222;2023-03-03T21:39:40;25.73;;;11.75;;
12412;SDS011;13877;18.896;-99.222;2023-03-03T21:42:10;24.75;;;11.57;;
12412;SDS011;13877;18.896;-99.222;2023-03-03T21:44:40;38.20;;;15.90;;
12412;SDS011;13877;18.896;-99.222;2023-03-03T21:49:45;35.75;;;17.13;;
12412;SDS011;13877;18.896;-99.222;2023-03-03T21:52:14;31.33;;;14.90;;
12412;SDS011;13877;18.896;-99.222;2023-03-03T21:54:42;28.88;;;13.93;;